createdAt,value
2023-04-03T00:00:18.342Z,45.08
2023-04-03T00:02:45.042Z,44.99
2023-04-03T00:05:11.618Z,44.85
2023-04-03T00:07:38.234Z,45.03
2023-04-03T00:10:05.496Z,44.74
2023-04-03T00:12:32.132Z,44.73
2023-04-03T00:14:58.529Z,44.62
2023-04-03T00:17:25.078Z,44.51
2023-04-03T00:19:51.764Z,44.82
2023-04-03T00:22:18.359Z,44.67
2023-04-03T00:24:44.962Z,44.16
2023-04-03T00:27:12.296Z,44.26
2023-04-03T00:29:38.625Z,44.61
2023-04-03T00:32:05.427Z,44.21
2023-04-03T00:34:31.949Z,44.80
2023-04-03T00:36:58.630Z,44.41
2023-04-03T00:39:25.343Z,44.40
2023-04-03T00:41:52.064Z,43.89
2023-04-03T00:44:46.852Z,43.63
2023-04-03T00:47:17.013Z,44.24
2023-04-03T00:49:44.733Z,43.89
2023-04-03T00:52:17.301Z,43.93
2023-04-03T00:54:46.964Z,44.11
2023-04-03T00:57:13.884Z,44.24
2023-04-03T00:59:45.795Z,44.04
2023-04-03T01:02:12.231Z,43.71
2023-04-03T01:04:41.962Z,43.63
2023-04-03T01:07:12.208Z,44.12
2023-04-03T01:09:39.934Z,44.06
2023-04-03T01:12:20.515Z,43.75
2023-04-03T01:14:49.273Z,44.47
2023-04-03T01:17:27.800Z,43.41
2023-04-03T01:20:12.666Z,43.79
2023-04-03T01:23:24.240Z,43.63
2023-04-03T01:25:53.997Z,43.71
2023-04-03T01:28:29.781Z,44.01
2023-04-03T01:31:23.877Z,43.71
2023-04-03T01:33:50.670Z,44.08
2023-04-03T01:36:26.989Z,44.22
2023-04-03T01:38:54.198Z,43.97
2023-04-03T01:41:22.212Z,44.42
2023-04-03T01:43:49.661Z,43.82
2023-04-03T01:46:20.733Z,43.79
2023-04-03T01:48:48.491Z,44.18
2023-04-03T01:51:15.286Z,44.14
2023-04-03T01:53:41.801Z,44.23
2023-04-03T01:56:08.778Z,44.35
2023-04-03T01:58:35.611Z,43.95
2023-04-03T02:01:02.580Z,44.13
2023-04-03T02:03:29.173Z,44.37
2023-04-03T02:05:55.523Z,44.31
2023-04-03T02:08:22.211Z,44.47
2023-04-03T02:10:50.214Z,44.00
2023-04-03T02:13:18.170Z,43.43
2023-04-03T02:15:44.793Z,43.99
2023-04-03T02:18:11.238Z,44.40
2023-04-03T02:20:38.002Z,44.10
2023-04-03T02:23:04.828Z,44.11
2023-04-03T02:25:32.499Z,43.78
2023-04-03T02:27:59.136Z,44.75
2023-04-03T02:30:26.100Z,44.79
2023-04-03T02:32:52.416Z,44.06
2023-04-03T02:35:19.203Z,43.97
2023-04-03T02:37:45.889Z,43.92
2023-04-03T02:40:12.636Z,44.37
2023-04-03T02:42:39.400Z,44.58
2023-04-03T02:45:06.550Z,44.65
2023-04-03T02:47:33.002Z,44.55
2023-04-03T02:49:59.396Z,44.54
2023-04-03T02:52:25.808Z,44.66
2023-04-03T02:54:52.149Z,44.26
2023-04-03T02:57:18.526Z,44.61
2023-04-03T02:59:45.181Z,43.92
2023-04-03T03:02:11.871Z,44.18
2023-04-03T03:04:38.325Z,44.59
2023-04-03T03:07:05.342Z,44.43
2023-04-03T03:09:31.948Z,44.96
2023-04-03T03:11:58.262Z,44.18
2023-04-03T03:14:24.787Z,44.15
2023-04-03T03:16:51.205Z,44.18
2023-04-03T03:19:17.557Z,44.35
2023-04-03T03:21:43.891Z,44.81
2023-04-03T03:24:10.368Z,44.78
2023-04-03T03:26:36.828Z,44.55
2023-04-03T03:29:03.354Z,44.93
2023-04-03T03:31:30.003Z,44.16
2023-04-03T03:33:56.417Z,44.39
2023-04-03T03:36:23.330Z,44.56
2023-04-03T03:38:49.938Z,44.51
2023-04-03T03:41:16.665Z,44.44
2023-04-03T03:43:43.020Z,44.85
2023-04-03T03:46:09.354Z,44.21
2023-04-03T03:48:36.188Z,44.56
2023-04-03T03:51:02.509Z,44.22
2023-04-03T03:53:28.850Z,44.63
2023-04-03T03:55:55.447Z,44.89
2023-04-03T03:58:21.796Z,44.41
2023-04-03T04:00:48.358Z,44.93
2023-04-03T04:03:15.049Z,45.22
2023-04-03T04:05:41.441Z,44.59
2023-04-03T04:08:07.861Z,44.54
2023-04-03T04:10:35.210Z,45.20
2023-04-03T04:13:01.623Z,45.13
2023-04-03T04:15:28.089Z,44.98
2023-04-03T04:17:54.634Z,45.12
2023-04-03T04:20:21.639Z,44.67
2023-04-03T04:22:48.195Z,44.64
2023-04-03T04:25:14.817Z,44.75
2023-04-03T04:27:41.609Z,45.14
2023-04-03T04:30:08.728Z,45.14
2023-04-03T04:32:35.504Z,45.15
2023-04-03T04:35:02.277Z,44.67
2023-04-03T04:37:28.870Z,45.20
2023-04-03T04:39:55.578Z,44.65
2023-04-03T04:42:22.240Z,44.68
2023-04-03T04:44:48.864Z,44.83
2023-04-03T04:47:15.554Z,44.88
2023-04-03T04:49:42.189Z,44.76
2023-04-03T04:52:08.624Z,45.25
2023-04-03T04:54:35.290Z,45.34
2023-04-03T04:57:01.637Z,45.25
2023-04-03T04:59:28.098Z,45.28
2023-04-03T05:01:54.688Z,45.10
2023-04-03T05:04:21.430Z,45.02
2023-04-03T05:06:47.894Z,45.34
2023-04-03T05:09:14.488Z,45.43
2023-04-03T05:11:41.191Z,44.96
2023-04-03T05:14:07.662Z,45.25
2023-04-03T05:16:34.421Z,45.07
2023-04-03T05:19:00.999Z,45.60
2023-04-03T05:21:28.865Z,45.25
2023-04-03T05:23:55.193Z,45.67
2023-04-03T05:26:22.023Z,45.66
2023-04-03T05:28:48.622Z,45.12
2023-04-03T05:31:15.847Z,45.50
2023-04-03T05:33:42.187Z,45.19
2023-04-03T05:36:09.013Z,45.13
2023-04-03T05:38:35.878Z,45.57
2023-04-03T05:41:02.625Z,45.28
2023-04-03T05:43:28.991Z,45.15
2023-04-03T05:45:55.431Z,45.27
2023-04-03T05:48:22.050Z,45.54
2023-04-03T05:50:48.689Z,45.30
2023-04-03T05:53:29.133Z,45.09
2023-04-03T05:55:55.606Z,45.10
2023-04-03T05:58:21.996Z,45.75
2023-04-03T06:00:48.518Z,45.43
2023-04-03T06:03:15.091Z,45.36
2023-04-03T06:05:42.552Z,46.04
2023-04-03T06:08:10.213Z,45.66
2023-04-03T06:10:37.538Z,45.29
2023-04-03T06:13:03.935Z,45.50
2023-04-03T06:15:30.931Z,45.31
2023-04-03T06:17:58.047Z,45.08
2023-04-03T06:20:24.715Z,45.66
2023-04-03T06:22:52.053Z,45.34
2023-04-03T06:25:19.940Z,45.64
2023-04-03T06:27:46.397Z,44.94
2023-04-03T06:30:13.292Z,45.26
2023-04-03T06:32:39.766Z,44.96
2023-04-03T06:35:07.307Z,45.04
2023-04-03T06:37:33.800Z,45.27
2023-04-03T06:40:01.451Z,44.88
2023-04-03T06:42:27.885Z,45.01
2023-04-03T06:44:54.238Z,45.31
2023-04-03T06:47:20.915Z,45.02
2023-04-03T06:49:47.864Z,45.09
2023-04-03T06:52:14.397Z,45.03
2023-04-03T06:54:41.476Z,45.20
2023-04-03T06:57:08.568Z,45.16
2023-04-03T06:59:36.109Z,44.50
2023-04-03T07:02:02.555Z,44.75
2023-04-03T07:04:29.059Z,44.44
2023-04-03T07:06:55.818Z,45.05
2023-04-03T07:09:22.743Z,44.56
2023-04-03T07:11:49.146Z,44.71
2023-04-03T07:14:15.513Z,44.98
2023-04-03T07:16:42.911Z,44.39
2023-04-03T07:19:09.985Z,44.36
2023-04-03T07:21:36.678Z,44.43
2023-04-03T07:24:03.648Z,45.12
2023-04-03T07:26:30.221Z,44.44
2023-04-03T07:28:56.516Z,44.55
2023-04-03T07:31:22.834Z,44.78
2023-04-03T07:33:49.261Z,44.11
2023-04-03T07:36:18.578Z,44.16
2023-04-03T07:38:45.007Z,44.80
2023-04-03T07:41:16.291Z,44.66
2023-04-03T07:43:43.254Z,44.81
2023-04-03T07:46:10.235Z,44.89
2023-04-03T07:48:36.972Z,43.73
2023-04-03T07:51:05.111Z,43.90
2023-04-03T07:53:31.960Z,44.04
2023-04-03T07:55:59.828Z,43.86
2023-04-03T07:58:26.826Z,43.85
2023-04-03T08:00:53.802Z,43.96
2023-04-03T08:03:20.437Z,44.17
2023-04-03T08:05:48.852Z,43.40
2023-04-03T08:08:20.885Z,42.65
2023-04-03T08:10:54.867Z,43.44
2023-04-03T08:13:22.372Z,43.83
2023-04-03T08:15:49.152Z,42.84
2023-04-03T08:18:17.259Z,42.91
2023-04-03T08:20:44.127Z,42.58
2023-04-03T08:23:11.313Z,43.12
2023-04-03T08:25:42.447Z,41.44
2023-04-03T08:28:09.622Z,42.22
2023-04-03T08:30:37.215Z,42.01
2023-04-03T08:33:04.713Z,41.81
2023-04-03T08:35:32.694Z,41.83
2023-04-03T08:37:59.359Z,41.53
2023-04-03T08:40:25.977Z,41.68
2023-04-03T08:43:05.379Z,41.30
2023-04-03T08:45:51.819Z,40.27
2023-04-03T08:48:23.951Z,40.74
2023-04-03T08:50:54.621Z,40.79
2023-04-03T08:53:29.574Z,40.88
2023-04-03T08:55:56.861Z,41.09
2023-04-03T08:58:27.085Z,41.22
2023-04-03T09:01:06.017Z,39.56
2023-04-03T09:03:36.320Z,40.40
2023-04-03T09:06:21.418Z,38.23
2023-04-03T09:09:14.987Z,39.35
2023-04-03T09:11:56.561Z,38.79
2023-04-03T09:14:58.322Z,38.16
2023-04-03T09:17:46.206Z,39.14
2023-04-03T09:20:28.924Z,37.84
2023-04-03T09:22:55.595Z,39.38
2023-04-03T09:25:33.835Z,38.10
2023-04-03T09:28:02.515Z,39.13
2023-04-03T09:30:29.784Z,39.20
2023-04-03T09:32:58.257Z,38.95
2023-04-03T09:35:36.294Z,38.07
2023-04-03T09:38:11.139Z,39.30
2023-04-03T09:40:42.091Z,38.79
2023-04-03T09:43:32.328Z,37.21
2023-04-03T09:46:20.910Z,37.59
2023-04-03T09:49:05.114Z,38.26
2023-04-03T09:51:34.296Z,39.51
2023-04-03T09:54:01.019Z,38.97
2023-04-03T09:56:31.600Z,37.25
2023-04-03T09:59:03.252Z,37.67
2023-04-03T10:01:31.365Z,38.24
2023-04-03T10:04:06.722Z,36.49
2023-04-03T10:06:41.478Z,37.31
2023-04-03T10:09:21.774Z,36.60
2023-04-03T10:12:08.239Z,36.16
2023-04-03T10:14:39.765Z,37.30
2023-04-03T10:17:21.559Z,36.59
2023-04-03T10:19:58.422Z,34.76
2023-04-03T10:22:43.520Z,34.64
2023-04-03T10:25:27.890Z,34.64
2023-04-03T10:27:57.253Z,36.34
2023-04-03T10:30:33.672Z,34.90
2023-04-03T10:33:18.212Z,35.28
2023-04-03T10:36:12.564Z,34.45
2023-04-03T10:38:59.301Z,34.76
2023-04-03T10:41:51.470Z,35.72
2023-04-03T10:44:37.663Z,33.83
2023-04-03T10:47:25.684Z,33.75
2023-04-03T10:50:02.647Z,34.66
2023-04-03T10:52:41.560Z,35.11
2023-04-03T10:55:13.966Z,33.63
2023-04-03T10:57:41.850Z,34.18
2023-04-03T11:00:20.751Z,33.38
2023-04-03T11:02:53.833Z,32.55
2023-04-03T11:05:37.717Z,30.68
2023-04-03T11:08:14.651Z,32.57
2023-04-03T11:10:49.166Z,31.24
2023-04-03T11:13:21.096Z,31.56
2023-04-03T11:15:47.619Z,33.02
2023-04-03T11:18:23.212Z,32.44
2023-04-03T11:20:59.866Z,32.16
2023-04-03T11:23:30.377Z,33.31
2023-04-03T11:26:14.223Z,32.80
2023-04-03T11:28:40.818Z,35.03
2023-04-03T11:31:27.231Z,34.37
2023-04-03T11:34:02.376Z,33.82
2023-04-03T11:36:39.460Z,31.95
2023-04-03T11:39:20.240Z,31.36
2023-04-03T11:41:48.281Z,33.21
2023-04-03T11:44:38.624Z,33.22
2023-04-03T11:47:13.241Z,31.74
2023-04-03T11:50:00.098Z,32.67
2023-04-03T11:52:44.759Z,31.30
2023-04-03T11:55:23.260Z,32.92
2023-04-03T11:57:58.771Z,30.92
2023-04-03T12:00:50.868Z,31.65
2023-04-03T12:03:32.738Z,31.44
2023-04-03T12:06:05.122Z,31.45
2023-04-03T12:08:49.695Z,31.49
2023-04-03T12:11:39.145Z,30.44
2023-04-03T12:14:06.224Z,32.57
2023-04-03T12:16:38.535Z,31.23
2023-04-03T12:22:08.504Z,32.13
2023-04-03T12:24:40.181Z,31.57
2023-04-03T12:27:23.288Z,30.86
2023-04-03T12:29:57.876Z,31.56
2023-04-03T12:32:43.030Z,30.41
2023-04-03T12:35:20.064Z,31.39
2023-04-03T12:38:19.603Z,31.00
2023-04-03T12:40:58.292Z,30.66
2023-04-03T12:43:49.892Z,31.65
2023-04-03T12:46:19.987Z,32.05
2023-04-03T12:48:48.139Z,30.99
2023-04-03T12:51:29.368Z,30.45
2023-04-03T12:54:03.176Z,29.71
2023-04-03T12:56:33.409Z,31.03
2023-04-03T12:59:23.658Z,30.58
2023-04-03T13:02:13.463Z,29.95
2023-04-03T13:04:40.260Z,31.17
2023-04-03T13:07:07.871Z,32.13
2023-04-03T13:09:34.611Z,31.85
2023-04-03T13:12:14.060Z,29.36
2023-04-03T13:14:42.094Z,31.21
2023-04-03T13:17:17.942Z,30.59
2023-04-03T13:19:46.882Z,31.14
2023-04-03T13:22:44.554Z,31.02
2023-04-03T13:25:17.121Z,30.36
2023-04-03T13:27:45.122Z,31.20
2023-04-03T13:30:30.330Z,30.07
2023-04-03T13:33:00.853Z,31.25
2023-04-03T13:35:40.269Z,29.69
2023-04-03T13:38:25.659Z,31.36
2023-04-03T13:40:55.787Z,30.45
2023-04-03T13:43:28.359Z,30.64
2023-04-03T13:46:07.241Z,30.37
2023-04-03T13:48:42.953Z,30.09
2023-04-03T13:51:12.593Z,30.50
2023-04-03T13:53:52.401Z,29.99
2023-04-03T13:56:32.174Z,31.07
2023-04-03T13:59:18.656Z,30.60
2023-04-03T14:01:53.535Z,31.55
2023-04-03T14:04:30.484Z,31.25
2023-04-03T14:06:57.969Z,31.12
2023-04-03T14:09:27.263Z,30.59
2023-04-03T14:12:06.031Z,29.59
2023-04-03T14:14:35.680Z,30.18
2023-04-03T14:17:24.819Z,31.58
2023-04-03T14:19:53.625Z,30.93
2023-04-03T14:22:24.309Z,31.06
2023-04-03T14:24:52.745Z,30.62
2023-04-03T14:27:37.769Z,30.60
2023-04-03T14:30:05.636Z,29.93
2023-04-03T14:32:32.444Z,30.34
2023-04-03T14:34:59.634Z,30.79
2023-04-03T14:37:30.011Z,30.31
2023-04-03T14:39:59.044Z,31.20
2023-04-03T14:42:32.193Z,30.67
2023-04-03T14:45:00.814Z,31.65
2023-04-03T14:47:31.668Z,32.03
2023-04-03T14:50:02.084Z,31.02
2023-04-03T14:52:32.304Z,30.66
2023-04-03T14:54:59.039Z,30.69
2023-04-03T14:57:27.744Z,30.33
2023-04-03T14:59:54.182Z,29.93
2023-04-03T15:02:32.843Z,28.82
2023-04-03T15:05:01.315Z,30.54
2023-04-03T15:07:31.174Z,30.56
2023-04-03T15:09:57.782Z,30.46
2023-04-03T15:12:26.185Z,30.87
2023-04-03T15:14:59.980Z,30.77
2023-04-03T15:17:28.418Z,30.90
2023-04-03T15:19:54.879Z,30.97
2023-04-03T15:22:21.322Z,30.82
2023-04-03T15:24:47.893Z,30.19
2023-04-03T15:27:16.434Z,30.97
2023-04-03T15:29:43.673Z,29.65
2023-04-03T15:32:10.733Z,30.48
2023-04-03T15:34:38.348Z,30.33
2023-04-03T15:37:04.902Z,30.93
2023-04-03T15:39:31.381Z,30.11
2023-04-03T15:42:00.789Z,30.54
2023-04-03T15:44:27.391Z,30.58
2023-04-03T15:46:54.073Z,30.41
2023-04-03T15:49:22.298Z,30.64
2023-04-03T15:51:49.007Z,30.35
2023-04-03T15:54:16.623Z,31.04
2023-04-03T15:56:43.853Z,30.21
2023-04-03T15:59:11.440Z,30.29
2023-04-03T16:01:39.865Z,30.45
2023-04-03T16:04:09.585Z,30.29
2023-04-03T16:06:36.602Z,30.56
2023-04-03T16:09:04.086Z,29.72
2023-04-03T16:11:31.647Z,29.69
2023-04-03T16:14:09.394Z,30.20
2023-04-03T16:16:37.646Z,29.77
2023-04-03T16:19:05.410Z,30.23
2023-04-03T16:21:34.110Z,29.62
2023-04-03T16:24:02.549Z,29.36
2023-04-03T16:26:29.272Z,29.88
2023-04-03T16:28:55.683Z,29.95
2023-04-03T16:31:28.036Z,30.61
2023-04-03T16:33:55.917Z,29.91
2023-04-03T16:36:23.379Z,29.72
2023-04-03T16:38:49.705Z,30.37
2023-04-03T16:41:18.120Z,30.39
2023-04-03T16:43:45.097Z,29.51
2023-04-03T16:46:11.530Z,30.70
2023-04-03T16:48:38.936Z,29.26
2023-04-03T16:51:05.473Z,29.87
2023-04-03T16:53:32.117Z,30.24
2023-04-03T16:55:59.517Z,30.74
2023-04-03T16:58:27.136Z,30.43
2023-04-03T17:00:55.030Z,30.65
2023-04-03T17:03:22.090Z,30.07
2023-04-03T17:05:49.037Z,30.72
2023-04-03T17:08:19.077Z,30.35
2023-04-03T17:10:45.444Z,30.37
2023-04-03T17:13:11.750Z,30.33
2023-04-03T17:15:39.795Z,30.72
2023-04-03T17:18:08.679Z,30.39
2023-04-03T17:20:37.210Z,30.99
2023-04-03T17:23:03.569Z,31.50
2023-04-03T17:25:30.370Z,30.45
2023-04-03T17:27:56.815Z,30.98
2023-04-03T17:30:23.669Z,31.14
2023-04-03T17:32:50.061Z,31.01
2023-04-03T17:35:16.819Z,31.02
2023-04-03T17:37:43.371Z,31.02
2023-04-03T17:40:10.314Z,31.08
2023-04-03T17:42:36.704Z,30.92
2023-04-03T17:45:03.489Z,31.55
2023-04-03T17:47:30.283Z,31.23
2023-04-03T17:49:57.024Z,31.21
2023-04-03T17:52:25.599Z,30.87
2023-04-03T17:54:52.115Z,31.60
2023-04-03T17:57:18.796Z,31.19
2023-04-03T17:59:46.453Z,31.17
2023-04-03T18:02:12.808Z,31.06
2023-04-03T18:04:39.214Z,31.15
2023-04-03T18:07:09.808Z,31.48
2023-04-03T18:09:37.862Z,31.61
2023-04-03T18:12:07.059Z,31.81
2023-04-03T18:14:35.365Z,31.80
2023-04-03T18:17:01.771Z,32.14
2023-04-03T18:19:29.928Z,31.60
2023-04-03T18:22:00.720Z,31.98
2023-04-03T18:24:28.188Z,32.05
2023-04-03T18:27:00.258Z,32.08
2023-04-03T18:29:30.750Z,31.63
2023-04-03T18:31:58.570Z,32.62
2023-04-03T18:34:25.138Z,32.37
2023-04-03T18:36:52.239Z,32.31
2023-04-03T18:39:18.997Z,32.53
2023-04-03T18:41:46.142Z,32.80
2023-04-03T18:44:15.774Z,32.74
2023-04-03T18:46:42.567Z,32.70
2023-04-03T18:49:11.038Z,32.67
2023-04-03T18:51:39.750Z,32.94
2023-04-03T18:54:09.501Z,33.21
2023-04-03T18:56:37.040Z,33.08
2023-04-03T18:59:03.530Z,32.74
2023-04-03T19:01:31.321Z,33.08
2023-04-03T19:03:59.198Z,32.73
2023-04-03T19:06:26.104Z,32.95
2023-04-03T19:08:52.585Z,32.91
2023-04-03T19:11:19.235Z,33.46
2023-04-03T19:14:04.553Z,33.30
2023-04-03T19:16:34.194Z,33.48
2023-04-03T19:19:00.738Z,33.21
2023-04-03T19:21:27.496Z,33.22
2023-04-03T19:23:55.253Z,33.55
2023-04-03T19:26:23.335Z,33.54
2023-04-03T19:28:51.364Z,33.56
2023-04-03T19:31:20.869Z,33.68
2023-04-03T19:33:47.880Z,33.38
2023-04-03T19:36:15.709Z,33.54
2023-04-03T19:38:42.804Z,33.59
2023-04-03T19:41:13.728Z,33.37
2023-04-03T19:43:42.114Z,33.84
2023-04-03T19:46:09.617Z,33.85
2023-04-03T19:48:36.597Z,34.19
2023-04-03T19:51:04.652Z,33.88
2023-04-03T19:53:31.591Z,33.48
2023-04-03T19:55:58.533Z,33.83
2023-04-03T19:58:29.706Z,34.32
2023-04-03T20:00:59.035Z,34.17
2023-04-03T20:03:26.443Z,34.05
2023-04-03T20:05:54.318Z,34.40
2023-04-03T20:08:20.920Z,34.05
2023-04-03T20:10:49.618Z,34.18
2023-04-03T20:13:16.292Z,34.61
2023-04-03T20:15:46.030Z,34.52
2023-04-03T20:18:18.928Z,34.35
2023-04-03T20:21:00.073Z,34.40
2023-04-03T20:23:27.437Z,34.47
2023-04-03T20:26:06.516Z,34.58
2023-04-03T20:28:36.338Z,34.65
2023-04-03T20:31:03.540Z,34.70
2023-04-03T20:33:30.061Z,34.67
2023-04-03T20:35:57.694Z,34.75
2023-04-03T20:38:24.176Z,34.90
2023-04-03T20:40:50.723Z,34.88
2023-04-03T20:43:17.205Z,34.76
2023-04-03T20:45:44.110Z,35.14
2023-04-03T20:48:12.885Z,34.61
2023-04-03T20:50:39.941Z,35.01
2023-04-03T20:53:07.996Z,34.92
2023-04-03T20:55:34.507Z,35.37
2023-04-03T20:58:02.002Z,35.27
2023-04-03T21:00:32.103Z,35.31
2023-04-03T21:03:01.654Z,35.08
2023-04-03T21:05:30.030Z,35.10
2023-04-03T21:08:34.918Z,35.21
2023-04-03T21:11:38.433Z,35.24
2023-04-03T21:14:43.220Z,34.79
2023-04-03T21:17:09.521Z,35.81
2023-04-03T21:19:43.135Z,35.82
2023-04-03T21:22:09.803Z,35.77
2023-04-03T21:24:36.828Z,36.01
2023-04-03T21:27:04.977Z,35.41
2023-04-03T21:29:31.631Z,36.21
2023-04-03T21:31:59.820Z,35.90
2023-04-03T21:34:30.432Z,36.21
2023-04-03T21:37:08.665Z,35.70
2023-04-03T21:39:35.414Z,35.68
2023-04-03T21:42:01.897Z,36.26
2023-04-03T21:44:28.822Z,36.19
2023-04-03T21:46:59.781Z,36.42
2023-04-03T21:49:27.025Z,36.01
2023-04-03T21:51:54.311Z,36.22
2023-04-03T21:54:20.975Z,36.25
2023-04-03T21:56:52.646Z,35.98
2023-04-03T21:59:19.195Z,36.59
2023-04-03T22:01:45.792Z,36.34
2023-04-03T22:04:12.840Z,36.52
2023-04-03T22:06:39.262Z,36.81
2023-04-03T22:09:05.843Z,36.36
2023-04-03T22:11:35.045Z,36.80
2023-04-03T22:14:01.926Z,37.20
2023-04-03T22:16:28.603Z,37.08
2023-04-03T22:18:59.229Z,37.45
2023-04-03T22:21:25.798Z,37.24
2023-04-03T22:23:52.550Z,36.55
2023-04-03T22:26:18.847Z,36.59
2023-04-03T22:28:47.121Z,36.86
2023-04-03T22:31:14.849Z,37.19
2023-04-03T22:33:42.480Z,37.24
2023-04-03T22:36:10.735Z,37.65
2023-04-03T22:38:39.313Z,37.18
2023-04-03T22:41:07.162Z,37.95
2023-04-03T22:43:36.142Z,37.26
2023-04-03T22:46:04.341Z,37.19
2023-04-03T22:48:33.753Z,37.81
2023-04-03T22:51:01.040Z,37.54
2023-04-03T22:53:28.310Z,37.99
2023-04-03T22:55:59.427Z,38.71
2023-04-03T22:58:26.682Z,38.39
2023-04-03T23:01:08.173Z,38.38
2023-04-03T23:03:35.868Z,38.15
2023-04-03T23:06:03.656Z,37.87
2023-04-03T23:08:31.319Z,38.51
2023-04-03T23:10:58.761Z,38.29
2023-04-03T23:13:26.616Z,38.25
2023-04-03T23:16:01.019Z,38.81
2023-04-03T23:18:31.447Z,38.13
2023-04-03T23:21:04.617Z,38.95
2023-04-03T23:23:31.875Z,39.25
2023-04-03T23:26:00.669Z,38.53
2023-04-03T23:28:27.926Z,38.46
2023-04-03T23:31:06.858Z,38.50
2023-04-03T23:33:33.557Z,38.74
2023-04-03T23:36:05.845Z,38.92
2023-04-03T23:38:32.252Z,38.31
2023-04-03T23:40:58.851Z,38.64
2023-04-03T23:43:25.397Z,38.78
2023-04-03T23:45:51.919Z,38.98
2023-04-03T23:48:18.421Z,38.86
2023-04-03T23:50:44.809Z,39.11
2023-04-03T23:53:13.557Z,39.27
2023-04-03T23:55:40.644Z,39.24
2023-04-03T23:58:07.528Z,38.63
